DSTT2: Red River at Denison Dam nr Denison, TX

Data processed at Sat Mar 23 2019 21:14


All information presented herein is the property of the government of the United States of America and may be revised or deleted at any time without prior notice.
Dissemination of this information without the expressed written consent of the Public Affairs Office, Tulsa District U.S. Army Corps of Engineers is strictly prohibited.
These data are gathered electronically and, as presented, have not undergone any form of quality control. These data are not guaranteed to be valid or correct.
Go to home page.
Go to station list.
Go to home page.

Upstream stations:

Downstream station:
Previous Day
Next Day
Current Day
    
SHEF ID:       DSTT2     Red River at Denison Dam nr Deni
STATION TYPE:  

               PRECIP     STAGE  RIV-FLOW  BAT-LOAD
                   in        ft       cfs      volt
              Ccp-Rev   Ccp-Rev   Ccp-Rev   Ccp-Rev
(US/Central)
03/23 00:00      0.00     12.02     16894     12.97
03/23 01:00      0.00     12.06     17028     12.97
03/23 02:00      0.00     12.06     17028     12.89
03/23 03:00      0.00     11.95     16661     12.89
03/23 04:00      0.00     12.11     17195     12.89
03/23 05:00      0.00     12.12     17229     12.89
03/23 06:00      0.00     12.14     17296     12.81
03/23 07:00      0.00     12.11     17195     12.81
03/23 08:00      0.00     12.11     17195     12.81
03/23 09:00      0.00     12.08     17095     12.81
03/23 10:00      0.05     12.05     16994     12.97
03/23 11:00      0.00     12.18     17431     12.81
03/23 12:00      0.00     12.07     17061     13.60
03/23 13:00      0.01     12.07     17061     13.37
03/23 14:00      0.00     12.00     16827     13.53
03/23 15:00      0.00     12.03     16927     13.84
03/23 16:00      0.00     12.09     17128     13.76
03/23 17:00      0.00     12.07     17061     13.84
03/23 18:00      0.00     12.10     17162     13.68
03/23 19:00      0.00     12.11     17195     13.60
03/23 20:00      0.00     12.10     17162     13.53
03/23 21:00      0.00     12.05     16994     13.21
03/23 22:00      ----      ----      ----      ----
03/23 23:00      ----      ----      ----      ----